sensor_id;sensor_type;location;lat;lon;timestamp;P1;durP1;ratioP1;P2;durP2;ratioP2
70967;SDS011;58629;48.808;8.820;2023-09-30T00:00:36;1.73;;;1.00;;
70967;SDS011;58629;48.808;8.820;2023-09-30T00:03:01;2.10;;;1.20;;
70967;SDS011;58629;48.808;8.820;2023-09-30T00:05:27;1.80;;;1.10;;
70967;SDS011;58629;48.808;8.820;2023-09-30T00:07:52;1.83;;;1.00;;
70967;SDS011;58629;48.808;8.820;2023-09-30T00:10:17;1.67;;;1.00;;
70967;SDS011;58629;48.808;8.820;2023-09-30T00:12:43;2.13;;;1.00;;
70967;SDS011;58629;48.808;8.820;2023-09-30T00:15:08;1.43;;;0.90;;
70967;SDS011;58629;48.808;8.820;2023-09-30T00:17:34;2.65;;;1.15;;
70967;SDS011;58629;48.808;8.820;2023-09-30T00:19:59;3.20;;;1.30;;
70967;SDS011;58629;48.808;8.820;2023-09-30T00:22:25;4.30;;;1.97;;
70967;SDS011;58629;48.808;8.820;2023-09-30T00:24:50;4.50;;;1.93;;
70967;SDS011;58629;48.808;8.820;2023-09-30T00:27:15;3.03;;;1.90;;
70967;SDS011;58629;48.808;8.820;2023-09-30T00:29:41;3.63;;;1.83;;
70967;SDS011;58629;48.808;8.820;2023-09-30T00:32:06;3.97;;;1.80;;
70967;SDS011;58629;48.808;8.820;2023-09-30T00:34:32;4.30;;;2.00;;
70967;SDS011;58629;48.808;8.820;2023-09-30T00:37:00;3.72;;;1.98;;
70967;SDS011;58629;48.808;8.820;2023-09-30T00:39:26;2.70;;;1.50;;
70967;SDS011;58629;48.808;8.820;2023-09-30T00:41:55;3.80;;;2.07;;
70967;SDS011;58629;48.808;8.820;2023-09-30T00:44:20;3.35;;;1.95;;
70967;SDS011;58629;48.808;8.820;2023-09-30T00:46:46;3.37;;;1.97;;
70967;SDS011;58629;48.808;8.820;2023-09-30T00:49:12;3.77;;;2.10;;
70967;SDS011;58629;48.808;8.820;2023-09-30T00:51:39;4.35;;;2.10;;
70967;SDS011;58629;48.808;8.820;2023-09-30T00:54:05;3.78;;;1.92;;
70967;SDS011;58629;48.808;8.820;2023-09-30T00:56:31;3.30;;;1.80;;
70967;SDS011;58629;48.808;8.820;2023-09-30T00:58:57;3.85;;;2.00;;
70967;SDS011;58629;48.808;8.820;2023-09-30T01:01:23;3.33;;;1.98;;
70967;SDS011;58629;48.808;8.820;2023-09-30T01:03:49;2.43;;;1.83;;
70967;SDS011;58629;48.808;8.820;2023-09-30T01:06:15;4.35;;;1.88;;
70967;SDS011;58629;48.808;8.820;2023-09-30T01:08:40;3.35;;;1.77;;
70967;SDS011;58629;48.808;8.820;2023-09-30T01:11:06;2.70;;;1.70;;
70967;SDS011;58629;48.808;8.820;2023-09-30T01:13:41;3.60;;;1.83;;
70967;SDS011;58629;48.808;8.820;2023-09-30T01:16:08;4.07;;;2.08;;
70967;SDS011;58629;48.808;8.820;2023-09-30T01:18:35;3.20;;;1.87;;
70967;SDS011;58629;48.808;8.820;2023-09-30T01:21:02;2.08;;;1.40;;
70967;SDS011;58629;48.808;8.820;2023-09-30T01:23:32;3.53;;;2.08;;
70967;SDS011;58629;48.808;8.820;2023-09-30T01:26:01;4.90;;;2.10;;
70967;SDS011;58629;48.808;8.820;2023-09-30T01:28:31;4.72;;;2.20;;
70967;SDS011;58629;48.808;8.820;2023-09-30T01:30:57;4.57;;;2.30;;
70967;SDS011;58629;48.808;8.820;2023-09-30T01:33:23;4.13;;;2.20;;
70967;SDS011;58629;48.808;8.820;2023-09-30T01:35:48;3.70;;;2.28;;
70967;SDS011;58629;48.808;8.820;2023-09-30T01:38:14;3.20;;;2.08;;
70967;SDS011;58629;48.808;8.820;2023-09-30T01:40:39;3.27;;;1.70;;
70967;SDS011;58629;48.808;8.820;2023-09-30T01:43:04;3.67;;;1.90;;
70967;SDS011;58629;48.808;8.820;2023-09-30T01:45:30;3.00;;;1.70;;
70967;SDS011;58629;48.808;8.820;2023-09-30T01:47:55;4.27;;;2.13;;
70967;SDS011;58629;48.808;8.820;2023-09-30T01:50:21;3.53;;;1.97;;
70967;SDS011;58629;48.808;8.820;2023-09-30T01:52:46;3.50;;;1.73;;
70967;SDS011;58629;48.808;8.820;2023-09-30T01:55:11;4.57;;;2.10;;
70967;SDS011;58629;48.808;8.820;2023-09-30T01:57:37;3.17;;;2.10;;
70967;SDS011;58629;48.808;8.820;2023-09-30T02:00:02;3.73;;;2.20;;
70967;SDS011;58629;48.808;8.820;2023-09-30T02:02:29;4.38;;;2.25;;
70967;SDS011;58629;48.808;8.820;2023-09-30T02:04:55;3.27;;;2.13;;
70967;SDS011;58629;48.808;8.820;2023-09-30T02:07:20;4.33;;;2.30;;
70967;SDS011;58629;48.808;8.820;2023-09-30T02:09:45;5.37;;;2.60;;
70967;SDS011;58629;48.808;8.820;2023-09-30T02:12:11;4.83;;;2.20;;
70967;SDS011;58629;48.808;8.820;2023-09-30T02:14:37;3.30;;;2.53;;
70967;SDS011;58629;48.808;8.820;2023-09-30T02:17:03;3.42;;;2.10;;
70967;SDS011;58629;48.808;8.820;2023-09-30T02:19:29;2.85;;;1.98;;
70967;SDS011;58629;48.808;8.820;2023-09-30T02:21:56;3.47;;;2.10;;
70967;SDS011;58629;48.808;8.820;2023-09-30T02:24:21;3.38;;;2.13;;
70967;SDS011;58629;48.808;8.820;2023-09-30T02:26:48;5.45;;;2.45;;
70967;SDS011;58629;48.808;8.820;2023-09-30T02:29:13;4.25;;;2.80;;
70967;SDS011;58629;48.808;8.820;2023-09-30T02:31:39;4.30;;;2.30;;
70967;SDS011;58629;48.808;8.820;2023-09-30T02:34:06;2.95;;;1.80;;
70967;SDS011;58629;48.808;8.820;2023-09-30T02:36:31;2.72;;;1.65;;
70967;SDS011;58629;48.808;8.820;2023-09-30T02:38:57;2.57;;;1.60;;
70967;SDS011;58629;48.808;8.820;2023-09-30T02:41:23;5.15;;;1.80;;
70967;SDS011;58629;48.808;8.820;2023-09-30T02:43:48;1.97;;;1.40;;
70967;SDS011;58629;48.808;8.820;2023-09-30T02:46:14;2.45;;;1.58;;
70967;SDS011;58629;48.808;8.820;2023-09-30T02:48:40;3.43;;;2.03;;
70967;SDS011;58629;48.808;8.820;2023-09-30T02:51:08;3.50;;;2.20;;
70967;SDS011;58629;48.808;8.820;2023-09-30T02:53:34;6.07;;;2.40;;
70967;SDS011;58629;48.808;8.820;2023-09-30T02:56:00;4.97;;;2.40;;
70967;SDS011;58629;48.808;8.820;2023-09-30T02:58:25;3.77;;;2.30;;
70967;SDS011;58629;48.808;8.820;2023-09-30T03:00:50;3.93;;;2.40;;
70967;SDS011;58629;48.808;8.820;2023-09-30T03:03:16;4.80;;;2.60;;
70967;SDS011;58629;48.808;8.820;2023-09-30T03:05:41;4.78;;;2.50;;
70967;SDS011;58629;48.808;8.820;2023-09-30T03:08:06;4.90;;;2.50;;
70967;SDS011;58629;48.808;8.820;2023-09-30T03:10:32;3.37;;;2.30;;
70967;SDS011;58629;48.808;8.820;2023-09-30T03:12:57;4.47;;;2.50;;
70967;SDS011;58629;48.808;8.820;2023-09-30T03:15:29;4.50;;;2.15;;
70967;SDS011;58629;48.808;8.820;2023-09-30T03:17:58;3.47;;;2.17;;
70967;SDS011;58629;48.808;8.820;2023-09-30T03:20:24;4.53;;;2.40;;
70967;SDS011;58629;48.808;8.820;2023-09-30T03:22:50;3.50;;;2.20;;
70967;SDS011;58629;48.808;8.820;2023-09-30T03:25:16;2.73;;;2.00;;
70967;SDS011;58629;48.808;8.820;2023-09-30T03:27:43;2.72;;;1.80;;
70967;SDS011;58629;48.808;8.820;2023-09-30T03:30:09;1.98;;;1.40;;
70967;SDS011;58629;48.808;8.820;2023-09-30T03:32:37;2.08;;;1.58;;
70967;SDS011;58629;48.808;8.820;2023-09-30T03:35:06;1.70;;;1.40;;
70967;SDS011;58629;48.808;8.820;2023-09-30T03:37:32;2.00;;;1.30;;
70967;SDS011;58629;48.808;8.820;2023-09-30T03:39:58;1.98;;;1.30;;
70967;SDS011;58629;48.808;8.820;2023-09-30T03:42:23;1.53;;;1.17;;
70967;SDS011;58629;48.808;8.820;2023-09-30T03:44:49;1.50;;;1.23;;
70967;SDS011;58629;48.808;8.820;2023-09-30T03:47:15;1.50;;;1.08;;
70967;SDS011;58629;48.808;8.820;2023-09-30T03:49:41;2.30;;;1.73;;
70967;SDS011;58629;48.808;8.820;2023-09-30T03:52:09;2.40;;;1.38;;
70967;SDS011;58629;48.808;8.820;2023-09-30T03:54:35;1.63;;;1.17;;
70967;SDS011;58629;48.808;8.820;2023-09-30T03:57:02;1.40;;;1.10;;
70967;SDS011;58629;48.808;8.820;2023-09-30T03:59:28;2.60;;;1.60;;
70967;SDS011;58629;48.808;8.820;2023-09-30T04:01:54;2.90;;;1.90;;
70967;SDS011;58629;48.808;8.820;2023-09-30T04:04:19;2.78;;;2.10;;
70967;SDS011;58629;48.808;8.820;2023-09-30T04:06:46;4.33;;;1.90;;
70967;SDS011;58629;48.808;8.820;2023-09-30T04:09:12;4.47;;;2.25;;
70967;SDS011;58629;48.808;8.820;2023-09-30T04:11:38;4.53;;;2.38;;
70967;SDS011;58629;48.808;8.820;2023-09-30T04:14:07;5.65;;;2.75;;
70967;SDS011;58629;48.808;8.820;2023-09-30T04:16:33;4.23;;;2.10;;
70967;SDS011;58629;48.808;8.820;2023-09-30T04:18:59;2.67;;;1.90;;
70967;SDS011;58629;48.808;8.820;2023-09-30T04:21:25;3.33;;;2.10;;
70967;SDS011;58629;48.808;8.820;2023-09-30T04:23:51;2.75;;;1.88;;
70967;SDS011;58629;48.808;8.820;2023-09-30T04:26:18;3.20;;;2.00;;
70967;SDS011;58629;48.808;8.820;2023-09-30T04:28:43;2.45;;;2.00;;
70967;SDS011;58629;48.808;8.820;2023-09-30T04:31:09;2.17;;;1.47;;
70967;SDS011;58629;48.808;8.820;2023-09-30T04:33:34;2.58;;;1.80;;
70967;SDS011;58629;48.808;8.820;2023-09-30T04:36:01;3.37;;;2.10;;
70967;SDS011;58629;48.808;8.820;2023-09-30T04:38:26;4.47;;;2.40;;
70967;SDS011;58629;48.808;8.820;2023-09-30T04:40:52;3.03;;;2.10;;
70967;SDS011;58629;48.808;8.820;2023-09-30T04:43:19;3.88;;;2.10;;
70967;SDS011;58629;48.808;8.820;2023-09-30T04:45:45;2.42;;;1.70;;
70967;SDS011;58629;48.808;8.820;2023-09-30T04:48:11;2.60;;;1.80;;
70967;SDS011;58629;48.808;8.820;2023-09-30T04:50:38;2.50;;;1.70;;
70967;SDS011;58629;48.808;8.820;2023-09-30T04:53:04;3.13;;;2.00;;
70967;SDS011;58629;48.808;8.820;2023-09-30T04:55:29;4.77;;;2.67;;
70967;SDS011;58629;48.808;8.820;2023-09-30T04:57:54;4.37;;;2.43;;
70967;SDS011;58629;48.808;8.820;2023-09-30T05:00:20;5.40;;;2.70;;
70967;SDS011;58629;48.808;8.820;2023-09-30T05:02:50;4.00;;;2.50;;
70967;SDS011;58629;48.808;8.820;2023-09-30T05:05:17;4.03;;;2.42;;
70967;SDS011;58629;48.808;8.820;2023-09-30T05:07:43;4.75;;;2.47;;
70967;SDS011;58629;48.808;8.820;2023-09-30T05:10:09;4.00;;;2.72;;
70967;SDS011;58629;48.808;8.820;2023-09-30T05:12:38;5.28;;;2.47;;
70967;SDS011;58629;48.808;8.820;2023-09-30T05:15:04;4.77;;;2.30;;
70967;SDS011;58629;48.808;8.820;2023-09-30T05:17:31;4.07;;;2.33;;
70967;SDS011;58629;48.808;8.820;2023-09-30T05:19:56;3.63;;;2.10;;
70967;SDS011;58629;48.808;8.820;2023-09-30T05:22:22;2.83;;;1.85;;
70967;SDS011;58629;48.808;8.820;2023-09-30T05:24:52;2.13;;;1.70;;
70967;SDS011;58629;48.808;8.820;2023-09-30T05:27:17;2.57;;;1.80;;
70967;SDS011;58629;48.808;8.820;2023-09-30T05:29:43;2.28;;;1.60;;
70967;SDS011;58629;48.808;8.820;2023-09-30T05:32:08;1.80;;;1.40;;
70967;SDS011;58629;48.808;8.820;2023-09-30T05:34:34;2.03;;;1.50;;
70967;SDS011;58629;48.808;8.820;2023-09-30T05:36:59;1.60;;;1.20;;
70967;SDS011;58629;48.808;8.820;2023-09-30T05:39:24;1.97;;;1.27;;
70967;SDS011;58629;48.808;8.820;2023-09-30T05:41:50;1.53;;;1.20;;
70967;SDS011;58629;48.808;8.820;2023-09-30T05:44:16;1.30;;;0.93;;
70967;SDS011;58629;48.808;8.820;2023-09-30T05:46:41;1.17;;;0.97;;
70967;SDS011;58629;48.808;8.820;2023-09-30T05:49:10;1.88;;;1.20;;
70967;SDS011;58629;48.808;8.820;2023-09-30T05:51:39;1.48;;;1.20;;
70967;SDS011;58629;48.808;8.820;2023-09-30T05:54:07;1.40;;;1.20;;
70967;SDS011;58629;48.808;8.820;2023-09-30T05:56:35;1.23;;;1.02;;
70967;SDS011;58629;48.808;8.820;2023-09-30T05:59:02;1.20;;;1.02;;
70967;SDS011;58629;48.808;8.820;2023-09-30T06:01:30;1.70;;;1.02;;
70967;SDS011;58629;48.808;8.820;2023-09-30T06:03:57;1.15;;;1.00;;
70967;SDS011;58629;48.808;8.820;2023-09-30T06:06:22;1.10;;;0.80;;
70967;SDS011;58629;48.808;8.820;2023-09-30T06:08:48;0.80;;;0.80;;
70967;SDS011;58629;48.808;8.820;2023-09-30T06:11:18;1.08;;;0.90;;
70967;SDS011;58629;48.808;8.820;2023-09-30T06:13:44;3.08;;;1.98;;
70967;SDS011;58629;48.808;8.820;2023-09-30T06:16:12;4.57;;;2.10;;
70967;SDS011;58629;48.808;8.820;2023-09-30T06:18:38;3.65;;;1.98;;
70967;SDS011;58629;48.808;8.820;2023-09-30T06:21:03;2.95;;;2.00;;
70967;SDS011;58629;48.808;8.820;2023-09-30T06:23:29;4.67;;;2.70;;
70967;SDS011;58629;48.808;8.820;2023-09-30T06:25:54;3.20;;;2.15;;
70967;SDS011;58629;48.808;8.820;2023-09-30T06:28:21;2.78;;;1.80;;
70967;SDS011;58629;48.808;8.820;2023-09-30T06:30:51;2.72;;;1.70;;
70967;SDS011;58629;48.808;8.820;2023-09-30T06:33:19;2.60;;;1.65;;
70967;SDS011;58629;48.808;8.820;2023-09-30T06:35:46;2.00;;;1.48;;
70967;SDS011;58629;48.808;8.820;2023-09-30T06:38:20;3.50;;;1.90;;
70967;SDS011;58629;48.808;8.820;2023-09-30T06:40:46;7.40;;;3.97;;
70967;SDS011;58629;48.808;8.820;2023-09-30T06:43:13;9.00;;;3.85;;
70967;SDS011;58629;48.808;8.820;2023-09-30T06:45:40;5.20;;;3.13;;
70967;SDS011;58629;48.808;8.820;2023-09-30T06:48:09;4.03;;;2.45;;
70967;SDS011;58629;48.808;8.820;2023-09-30T06:50:38;3.20;;;2.25;;
70967;SDS011;58629;48.808;8.820;2023-09-30T06:53:05;3.35;;;2.40;;
70967;SDS011;58629;48.808;8.820;2023-09-30T06:55:31;4.22;;;2.80;;
70967;SDS011;58629;48.808;8.820;2023-09-30T06:57:56;3.65;;;2.45;;
70967;SDS011;58629;48.808;8.820;2023-09-30T07:00:22;4.85;;;2.50;;
70967;SDS011;58629;48.808;8.820;2023-09-30T07:02:47;2.67;;;1.93;;
70967;SDS011;58629;48.808;8.820;2023-09-30T07:05:14;2.77;;;2.00;;
70967;SDS011;58629;48.808;8.820;2023-09-30T07:07:40;2.20;;;1.88;;
70967;SDS011;58629;48.808;8.820;2023-09-30T07:10:08;1.85;;;1.58;;
70967;SDS011;58629;48.808;8.820;2023-09-30T07:12:34;2.00;;;1.60;;
70967;SDS011;58629;48.808;8.820;2023-09-30T07:15:04;2.70;;;1.70;;
70967;SDS011;58629;48.808;8.820;2023-09-30T07:17:30;2.60;;;1.80;;
70967;SDS011;58629;48.808;8.820;2023-09-30T07:19:56;1.73;;;1.40;;
70967;SDS011;58629;48.808;8.820;2023-09-30T07:22:22;2.73;;;1.90;;
70967;SDS011;58629;48.808;8.820;2023-09-30T07:24:47;2.28;;;1.50;;
70967;SDS011;58629;48.808;8.820;2023-09-30T07:27:13;3.40;;;2.10;;
70967;SDS011;58629;48.808;8.820;2023-09-30T07:29:38;4.57;;;3.07;;
70967;SDS011;58629;48.808;8.820;2023-09-30T07:32:03;7.63;;;3.97;;
70967;SDS011;58629;48.808;8.820;2023-09-30T07:34:29;8.55;;;4.68;;
70967;SDS011;58629;48.808;8.820;2023-09-30T07:36:55;8.83;;;4.87;;
70967;SDS011;58629;48.808;8.820;2023-09-30T07:39:20;9.10;;;5.07;;
70967;SDS011;58629;48.808;8.820;2023-09-30T07:41:45;5.30;;;3.63;;
70967;SDS011;58629;48.808;8.820;2023-09-30T07:44:11;6.55;;;4.35;;
70967;SDS011;58629;48.808;8.820;2023-09-30T07:46:37;9.63;;;5.60;;
70967;SDS011;58629;48.808;8.820;2023-09-30T07:49:02;9.57;;;5.37;;
70967;SDS011;58629;48.808;8.820;2023-09-30T07:51:28;7.35;;;4.70;;
70967;SDS011;58629;48.808;8.820;2023-09-30T07:53:54;8.88;;;5.28;;
70967;SDS011;58629;48.808;8.820;2023-09-30T07:56:20;10.43;;;5.10;;
70967;SDS011;58629;48.808;8.820;2023-09-30T07:58:46;8.20;;;4.70;;
70967;SDS011;58629;48.808;8.820;2023-09-30T08:01:13;7.60;;;3.63;;
70967;SDS011;58629;48.808;8.820;2023-09-30T08:03:39;6.77;;;3.47;;
70967;SDS011;58629;48.808;8.820;2023-09-30T08:06:06;4.57;;;3.20;;
70967;SDS011;58629;48.808;8.820;2023-09-30T08:08:32;6.38;;;3.40;;
70967;SDS011;58629;48.808;8.820;2023-09-30T08:10:57;3.70;;;2.60;;
70967;SDS011;58629;48.808;8.820;2023-09-30T08:13:23;8.60;;;4.47;;
70967;SDS011;58629;48.808;8.820;2023-09-30T08:15:49;7.20;;;3.77;;
70967;SDS011;58629;48.808;8.820;2023-09-30T08:18:16;5.18;;;3.05;;
70967;SDS011;58629;48.808;8.820;2023-09-30T08:20:41;4.60;;;2.80;;
70967;SDS011;58629;48.808;8.820;2023-09-30T08:23:07;6.73;;;3.70;;
70967;SDS011;58629;48.808;8.820;2023-09-30T08:25:32;7.93;;;4.37;;
70967;SDS011;58629;48.808;8.820;2023-09-30T08:27:57;6.33;;;3.50;;
70967;SDS011;58629;48.808;8.820;2023-09-30T08:30:22;4.17;;;2.67;;
70967;SDS011;58629;48.808;8.820;2023-09-30T08:32:48;5.10;;;3.00;;
70967;SDS011;58629;48.808;8.820;2023-09-30T08:35:13;5.55;;;2.78;;
70967;SDS011;58629;48.808;8.820;2023-09-30T08:37:40;6.67;;;3.27;;
70967;SDS011;58629;48.808;8.820;2023-09-30T08:40:05;3.55;;;2.30;;
70967;SDS011;58629;48.808;8.820;2023-09-30T08:42:32;4.30;;;2.50;;
70967;SDS011;58629;48.808;8.820;2023-09-30T08:44:59;5.13;;;2.78;;
70967;SDS011;58629;48.808;8.820;2023-09-30T08:47:25;7.27;;;3.50;;
70967;SDS011;58629;48.808;8.820;2023-09-30T08:49:53;3.33;;;2.28;;
70967;SDS011;58629;48.808;8.820;2023-09-30T08:52:21;5.45;;;3.00;;
70967;SDS011;58629;48.808;8.820;2023-09-30T08:54:47;5.15;;;3.05;;
70967;SDS011;58629;48.808;8.820;2023-09-30T08:57:13;3.37;;;2.20;;
70967;SDS011;58629;48.808;8.820;2023-09-30T08:59:42;7.22;;;3.42;;
70967;SDS011;58629;48.808;8.820;2023-09-30T09:02:08;6.00;;;3.47;;
70967;SDS011;58629;48.808;8.820;2023-09-30T09:04:35;7.65;;;3.72;;
70967;SDS011;58629;48.808;8.820;2023-09-30T09:07:01;8.02;;;3.95;;
70967;SDS011;58629;48.808;8.820;2023-09-30T09:09:26;5.40;;;2.93;;
70967;SDS011;58629;48.808;8.820;2023-09-30T09:11:52;3.43;;;2.47;;
70967;SDS011;58629;48.808;8.820;2023-09-30T09:14:17;4.87;;;3.40;;
70967;SDS011;58629;48.808;8.820;2023-09-30T09:16:53;3.73;;;2.63;;
70967;SDS011;58629;48.808;8.820;2023-09-30T09:19:19;5.38;;;2.63;;
70967;SDS011;58629;48.808;8.820;2023-09-30T09:24:38;5.13;;;2.75;;
70967;SDS011;58629;48.808;8.820;2023-09-30T09:27:11;4.27;;;2.10;;
70967;SDS011;58629;48.808;8.820;2023-09-30T09:29:41;3.40;;;1.92;;
70967;SDS011;58629;48.808;8.820;2023-09-30T09:32:14;4.88;;;2.70;;
70967;SDS011;58629;48.808;8.820;2023-09-30T09:34:41;4.80;;;2.40;;
70967;SDS011;58629;48.808;8.820;2023-09-30T09:37:14;3.33;;;2.28;;
70967;SDS011;58629;48.808;8.820;2023-09-30T09:39:56;5.50;;;2.60;;
70967;SDS011;58629;48.808;8.820;2023-09-30T09:42:26;3.95;;;2.00;;
70967;SDS011;58629;48.808;8.820;2023-09-30T09:44:56;2.85;;;1.73;;
70967;SDS011;58629;48.808;8.820;2023-09-30T09:47:25;3.30;;;1.80;;
70967;SDS011;58629;48.808;8.820;2023-09-30T09:49:52;2.95;;;1.92;;
70967;SDS011;58629;48.808;8.820;2023-09-30T09:52:18;3.90;;;1.90;;
70967;SDS011;58629;48.808;8.820;2023-09-30T09:54:44;3.67;;;2.40;;
70967;SDS011;58629;48.808;8.820;2023-09-30T09:57:11;3.38;;;1.90;;
70967;SDS011;58629;48.808;8.820;2023-09-30T09:59:37;3.97;;;2.20;;
70967;SDS011;58629;48.808;8.820;2023-09-30T10:02:06;3.67;;;2.25;;
70967;SDS011;58629;48.808;8.820;2023-09-30T10:04:36;3.70;;;1.90;;
70967;SDS011;58629;48.808;8.820;2023-09-30T10:07:02;3.17;;;2.05;;
70967;SDS011;58629;48.808;8.820;2023-09-30T10:09:29;4.13;;;2.60;;
70967;SDS011;58629;48.808;8.820;2023-09-30T10:11:59;4.07;;;2.20;;
70967;SDS011;58629;48.808;8.820;2023-09-30T10:14:29;6.35;;;2.47;;
70967;SDS011;58629;48.808;8.820;2023-09-30T10:16:57;5.15;;;2.78;;
70967;SDS011;58629;48.808;8.820;2023-09-30T10:19:23;4.90;;;2.40;;
70967;SDS011;58629;48.808;8.820;2023-09-30T10:24:46;3.75;;;2.20;;
70967;SDS011;58629;48.808;8.820;2023-09-30T10:29:47;5.03;;;2.75;;
70967;SDS011;58629;48.808;8.820;2023-09-30T10:32:12;10.68;;;3.85;;
70967;SDS011;58629;48.808;8.820;2023-09-30T10:34:38;5.30;;;2.70;;
70967;SDS011;58629;48.808;8.820;2023-09-30T10:37:20;4.63;;;2.33;;
70967;SDS011;58629;48.808;8.820;2023-09-30T10:42:59;4.63;;;2.67;;
70967;SDS011;58629;48.808;8.820;2023-09-30T10:48:53;5.10;;;2.30;;
70967;SDS011;58629;48.808;8.820;2023-09-30T10:50:54;5.30;;;2.95;;
70967;SDS011;58629;48.808;8.820;2023-09-30T10:53:21;6.95;;;3.00;;
70967;SDS011;58629;48.808;8.820;2023-09-30T10:55:53;3.47;;;2.17;;
70967;SDS011;58629;48.808;8.820;2023-09-30T10:58:20;3.83;;;2.22;;
70967;SDS011;58629;48.808;8.820;2023-09-30T11:00:52;5.50;;;2.50;;
70967;SDS011;58629;48.808;8.820;2023-09-30T11:03:21;7.05;;;2.95;;
70967;SDS011;58629;48.808;8.820;2023-09-30T11:05:50;5.38;;;2.70;;
70967;SDS011;58629;48.808;8.820;2023-09-30T11:08:18;8.25;;;3.25;;
70967;SDS011;58629;48.808;8.820;2023-09-30T11:10:51;5.07;;;2.85;;
70967;SDS011;58629;48.808;8.820;2023-09-30T11:13:17;6.60;;;3.13;;
70967;SDS011;58629;48.808;8.820;2023-09-30T11:15:44;5.17;;;2.73;;
70967;SDS011;58629;48.808;8.820;2023-09-30T11:18:16;4.53;;;2.47;;
70967;SDS011;58629;48.808;8.820;2023-09-30T11:20:43;5.50;;;2.75;;
70967;SDS011;58629;48.808;8.820;2023-09-30T11:23:12;4.75;;;2.70;;
70967;SDS011;58629;48.808;8.820;2023-09-30T11:25:39;4.77;;;2.33;;
70967;SDS011;58629;48.808;8.820;2023-09-30T11:28:15;4.40;;;2.17;;
70967;SDS011;58629;48.808;8.820;2023-09-30T11:33:24;5.03;;;2.50;;
70967;SDS011;58629;48.808;8.820;2023-09-30T11:35:59;6.35;;;3.13;;
70967;SDS011;58629;48.808;8.820;2023-09-30T11:38:27;5.23;;;2.70;;
70967;SDS011;58629;48.808;8.820;2023-09-30T11:40:59;4.18;;;2.60;;
70967;SDS011;58629;48.808;8.820;2023-09-30T11:43:27;5.10;;;2.70;;
70967;SDS011;58629;48.808;8.820;2023-09-30T11:46:03;5.78;;;2.60;;
70967;SDS011;58629;48.808;8.820;2023-09-30T11:48:29;6.88;;;3.33;;
70967;SDS011;58629;48.808;8.820;2023-09-30T11:50:54;5.47;;;3.10;;
70967;SDS011;58629;48.808;8.820;2023-09-30T11:53:20;6.10;;;2.80;;
70967;SDS011;58629;48.808;8.820;2023-09-30T11:55:45;5.55;;;2.92;;
70967;SDS011;58629;48.808;8.820;2023-09-30T11:58:11;6.73;;;3.00;;
70967;SDS011;58629;48.808;8.820;2023-09-30T12:00:41;5.72;;;3.20;;
70967;SDS011;58629;48.808;8.820;2023-09-30T12:03:07;6.82;;;3.40;;
70967;SDS011;58629;48.808;8.820;2023-09-30T12:05:33;5.53;;;2.97;;
70967;SDS011;58629;48.808;8.820;2023-09-30T12:07:58;6.33;;;2.97;;
70967;SDS011;58629;48.808;8.820;2023-09-30T12:10:23;5.90;;;3.20;;
70967;SDS011;58629;48.808;8.820;2023-09-30T12:12:50;4.90;;;2.90;;
70967;SDS011;58629;48.808;8.820;2023-09-30T12:15:16;6.23;;;3.10;;
70967;SDS011;58629;48.808;8.820;2023-09-30T12:17:41;5.43;;;3.13;;
70967;SDS011;58629;48.808;8.820;2023-09-30T12:20:07;6.13;;;3.30;;
70967;SDS011;58629;48.808;8.820;2023-09-30T12:22:33;7.03;;;3.50;;
70967;SDS011;58629;48.808;8.820;2023-09-30T12:24:58;6.00;;;3.20;;
70967;SDS011;58629;48.808;8.820;2023-09-30T12:27:25;5.05;;;2.70;;
70967;SDS011;58629;48.808;8.820;2023-09-30T12:29:51;6.87;;;3.33;;
70967;SDS011;58629;48.808;8.820;2023-09-30T12:32:16;6.60;;;3.30;;
70967;SDS011;58629;48.808;8.820;2023-09-30T12:34:42;7.93;;;2.93;;
70967;SDS011;58629;48.808;8.820;2023-09-30T12:37:07;5.23;;;2.90;;
70967;SDS011;58629;48.808;8.820;2023-09-30T12:39:32;5.70;;;3.00;;
70967;SDS011;58629;48.808;8.820;2023-09-30T12:41:58;6.60;;;3.00;;
70967;SDS011;58629;48.808;8.820;2023-09-30T12:44:23;5.63;;;2.70;;
70967;SDS011;58629;48.808;8.820;2023-09-30T12:46:48;6.53;;;3.13;;
70967;SDS011;58629;48.808;8.820;2023-09-30T12:49:14;4.72;;;2.70;;
70967;SDS011;58629;48.808;8.820;2023-09-30T12:51:40;6.33;;;3.27;;
70967;SDS011;58629;48.808;8.820;2023-09-30T12:54:05;7.00;;;3.45;;
70967;SDS011;58629;48.808;8.820;2023-09-30T12:56:31;5.10;;;2.90;;
70967;SDS011;58629;48.808;8.820;2023-09-30T12:58:57;4.72;;;3.05;;
70967;SDS011;58629;48.808;8.820;2023-09-30T13:01:24;6.68;;;3.20;;
70967;SDS011;58629;48.808;8.820;2023-09-30T13:03:49;5.72;;;3.25;;
70967;SDS011;58629;48.808;8.820;2023-09-30T13:06:15;7.70;;;3.33;;
70967;SDS011;58629;48.808;8.820;2023-09-30T13:08:41;5.65;;;2.92;;
70967;SDS011;58629;48.808;8.820;2023-09-30T13:11:07;7.40;;;3.67;;
70967;SDS011;58629;48.808;8.820;2023-09-30T13:13:32;6.50;;;3.22;;
70967;SDS011;58629;48.808;8.820;2023-09-30T13:16:01;6.03;;;3.37;;
70967;SDS011;58629;48.808;8.820;2023-09-30T13:18:27;5.75;;;3.00;;
70967;SDS011;58629;48.808;8.820;2023-09-30T13:20:52;5.85;;;2.92;;
70967;SDS011;58629;48.808;8.820;2023-09-30T13:23:18;5.43;;;2.83;;
70967;SDS011;58629;48.808;8.820;2023-09-30T13:25:44;4.40;;;2.70;;
70967;SDS011;58629;48.808;8.820;2023-09-30T13:28:09;4.57;;;2.42;;
70967;SDS011;58629;48.808;8.820;2023-09-30T13:30:35;4.97;;;2.50;;
70967;SDS011;58629;48.808;8.820;2023-09-30T13:33:00;6.90;;;3.40;;
70967;SDS011;58629;48.808;8.820;2023-09-30T13:35:26;4.93;;;2.90;;
70967;SDS011;58629;48.808;8.820;2023-09-30T13:37:51;5.90;;;3.03;;
70967;SDS011;58629;48.808;8.820;2023-09-30T13:40:17;4.07;;;2.67;;
70967;SDS011;58629;48.808;8.820;2023-09-30T13:42:42;6.18;;;3.15;;
70967;SDS011;58629;48.808;8.820;2023-09-30T13:45:08;7.10;;;3.50;;
70967;SDS011;58629;48.808;8.820;2023-09-30T13:47:34;6.33;;;3.23;;
70967;SDS011;58629;48.808;8.820;2023-09-30T13:50:00;6.22;;;3.05;;
70967;SDS011;58629;48.808;8.820;2023-09-30T13:52:26;5.47;;;2.90;;
70967;SDS011;58629;48.808;8.820;2023-09-30T13:54:51;5.33;;;3.07;;
70967;SDS011;58629;48.808;8.820;2023-09-30T13:57:16;5.07;;;3.00;;
70967;SDS011;58629;48.808;8.820;2023-09-30T13:59:41;6.33;;;3.17;;
70967;SDS011;58629;48.808;8.820;2023-09-30T14:02:07;6.80;;;3.42;;
70967;SDS011;58629;48.808;8.820;2023-09-30T14:04:32;5.57;;;3.03;;
70967;SDS011;58629;48.808;8.820;2023-09-30T14:07:00;7.30;;;3.42;;
70967;SDS011;58629;48.808;8.820;2023-09-30T14:09:27;5.60;;;3.10;;
70967;SDS011;58629;48.808;8.820;2023-09-30T14:11:53;6.00;;;3.37;;
70967;SDS011;58629;48.808;8.820;2023-09-30T14:14:18;6.72;;;3.10;;
70967;SDS011;58629;48.808;8.820;2023-09-30T14:16:44;5.97;;;3.07;;
70967;SDS011;58629;48.808;8.820;2023-09-30T14:19:09;5.90;;;2.73;;
70967;SDS011;58629;48.808;8.820;2023-09-30T14:21:34;7.13;;;3.53;;
70967;SDS011;58629;48.808;8.820;2023-09-30T14:24:00;8.87;;;3.20;;
70967;SDS011;58629;48.808;8.820;2023-09-30T14:26:27;6.70;;;3.05;;
70967;SDS011;58629;48.808;8.820;2023-09-30T14:28:52;4.95;;;2.90;;
70967;SDS011;58629;48.808;8.820;2023-09-30T14:31:18;5.97;;;3.40;;
70967;SDS011;58629;48.808;8.820;2023-09-30T14:33:43;7.00;;;3.27;;
70967;SDS011;58629;48.808;8.820;2023-09-30T14:36:08;6.60;;;3.13;;
70967;SDS011;58629;48.808;8.820;2023-09-30T14:38:34;5.45;;;3.13;;
70967;SDS011;58629;48.808;8.820;2023-09-30T14:40:59;7.40;;;3.40;;
70967;SDS011;58629;48.808;8.820;2023-09-30T14:43:25;5.40;;;3.20;;
70967;SDS011;58629;48.808;8.820;2023-09-30T14:45:50;6.53;;;3.03;;
70967;SDS011;58629;48.808;8.820;2023-09-30T14:48:15;6.07;;;3.13;;
70967;SDS011;58629;48.808;8.820;2023-09-30T14:50:50;5.17;;;2.97;;
70967;SDS011;58629;48.808;8.820;2023-09-30T14:53:16;7.68;;;3.13;;
70967;SDS011;58629;48.808;8.820;2023-09-30T14:55:41;6.73;;;2.93;;
70967;SDS011;58629;48.808;8.820;2023-09-30T14:58:07;6.13;;;3.30;;
70967;SDS011;58629;48.808;8.820;2023-09-30T15:00:33;5.97;;;3.00;;